Time;durP1;ratioP1;P1;durP2;ratioP2;P2;SDS_P1;SDS_P2;PMS_P1;PMS_P2;Temp;Humidity;BMP_temperature;BMP_pressure;BME280_temperature;BME280_humidity;BME280_pressure;Samples;Min_cycle;Max_cycle;Signal;HPM_P1;HPM_P2
2021/07/10 00:01:00;;;;;;;;;41.25;35.75;;;;;21.38;53.53;101551.66;5038675;28;61701;-68
2021/07/10 00:03:26;;;;;;;;;56.00;44.25;;;;;21.33;53.81;101541.38;5058617;28;54576;-67
2021/07/10 00:05:52;;;;;;;;;47.75;39.25;;;;;21.31;53.89;101545.91;5055679;28;59227;-67
2021/07/10 00:08:17;;;;;;;;;40.50;33.75;;;;;21.32;53.76;101546.75;5048033;28;45447;-68
2021/07/10 00:10:42;;;;;;;;;29.25;25.75;;;;;21.28;53.63;101540.78;5047626;28;45576;-70
2021/07/10 00:13:08;;;;;;;;;27.50;23.75;;;;;21.30;53.94;101538.06;5049954;28;49242;-67
2021/07/10 00:15:33;;;;;;;;;30.25;29.00;;;;;21.28;54.27;101543.44;5034519;28;45502;-66
2021/07/10 00:17:59;;;;;;;;;26.00;23.25;;;;;21.20;54.88;101537.72;5031257;28;45620;-67
2021/07/10 00:20:24;;;;;;;;;26.00;21.25;;;;;21.12;55.03;101539.97;5037620;28;60764;-66
2021/07/10 00:22:49;;;;;;;;;28.00;22.50;;;;;21.04;54.93;101536.94;5032552;28;54689;-66
2021/07/10 00:25:16;;;;;;;;;24.25;21.50;;;;;21.01;55.37;101529.16;5038536;28;45477;-65
2021/07/10 00:27:41;;;;;;;;;22.00;20.50;;;;;21.00;55.06;101523.03;5045138;28;45510;-65
2021/07/10 00:30:08;;;;;;;;;19.75;18.25;;;;;21.00;55.24;101524.81;5039742;28;45507;-65
2021/07/10 00:32:33;;;;;;;;;22.25;19.50;;;;;21.02;54.91;101523.78;5049932;28;45616;-66
2021/07/10 00:34:58;;;;;;;;;23.00;20.50;;;;;21.02;55.23;101523.78;5058082;28;62729;-66
2021/07/10 00:37:24;;;;;;;;;24.75;22.50;;;;;21.03;54.68;101514.94;5055192;28;65077;-67
2021/07/10 00:39:49;;;;;;;;;25.75;18.50;;;;;21.04;54.98;101510.50;5016960;28;61396;-68
2021/07/10 00:42:23;;;;;;;;;26.50;22.00;;;;;21.06;54.82;101505.97;5059438;28;65778;-67
2021/07/10 00:44:49;;;;;;;;;26.25;24.25;;;;;21.07;54.93;101505.03;5025080;28;45337;-67
2021/07/10 00:47:14;;;;;;;;;23.50;21.00;;;;;21.07;55.21;101499.75;5037951;28;45301;-67
2021/07/10 00:49:40;;;;;;;;;23.25;23.00;;;;;21.07;54.82;101505.03;5038889;28;48021;-67
2021/07/10 00:52:05;;;;;;;;;24.25;20.75;;;;;21.07;54.73;101507.69;5037042;28;69949;-68
2021/07/10 00:54:32;;;;;;;;;20.75;18.50;;;;;21.05;55.38;101502.47;5040046;28;45263;-67
2021/07/10 00:56:58;;;;;;;;;27.25;21.75;;;;;21.03;55.15;101500.88;5040162;28;45413;-68
2021/07/10 00:59:29;;;;;;;;;26.75;23.00;;;;;21.00;55.47;101490.47;5029741;28;46200;-67
2021/07/10 01:01:55;;;;;;;;;27.25;21.75;;;;;20.99;55.09;101491.41;5037506;28;62797;-66
2021/07/10 01:04:20;;;;;;;;;23.25;20.50;;;;;21.00;55.58;101493.09;5034565;28;46146;-66
2021/07/10 01:06:47;;;;;;;;;22.75;21.25;;;;;20.98;55.58;101485.25;5053979;28;45177;-66
2021/07/10 01:09:15;;;;;;;;;24.00;21.50;;;;;21.00;55.55;101485.16;5023998;28;46600;-66
2021/07/10 01:11:41;;;;;;;;;22.50;19.25;;;;;21.00;55.18;101482.53;5057645;28;45298;-66
2021/07/10 01:14:09;;;;;;;;;20.50;20.50;;;;;21.02;55.11;101475.34;5041593;28;46429;-67
2021/07/10 01:16:34;;;;;;;;;17.50;16.50;;;;;21.03;55.56;101472.66;5038008;28;45273;-66
2021/07/10 01:18:59;;;;;;;;;26.25;21.25;;;;;21.03;55.40;101469.16;5020465;28;61973;-66
2021/07/10 01:21:25;;;;;;;;;25.75;24.25;;;;;21.03;55.36;101461.22;5058516;28;45238;-67
2021/07/10 01:23:51;;;;;;;;;28.25;24.25;;;;;21.04;55.27;101460.28;5057330;28;45519;-67
2021/07/10 01:26:17;;;;;;;;;29.00;21.75;;;;;21.03;55.48;101454.16;5048575;28;45447;-68
2021/07/10 01:28:42;;;;;;;;;25.50;21.50;;;;;21.05;55.22;101454.06;5059144;28;45394;-68
2021/07/10 01:31:07;;;;;;;;;28.50;25.50;;;;;21.04;55.36;101449.72;5061956;28;62663;-68
2021/07/10 01:33:33;;;;;;;;;31.00;26.75;;;;;21.02;55.56;101452.41;5060884;28;60387;-68
2021/07/10 01:35:58;;;;;;;;;36.75;31.25;;;;;21.00;55.81;101445.53;5062368;28;58008;-68
2021/07/10 01:38:24;;;;;;;;;35.50;30.50;;;;;20.96;55.27;101437.78;5062401;28;45552;-68
2021/07/10 01:40:49;;;;;;;;;41.25;31.25;;;;;20.95;55.30;101438.72;5040969;28;52054;-68
2021/07/10 01:43:14;;;;;;;;;36.50;30.75;;;;;20.94;55.96;101431.75;5060098;28;45266;-68
2021/07/10 01:45:40;;;;;;;;;28.25;25.50;;;;;20.91;56.30;101431.94;5062352;28;45402;-67
2021/07/10 01:48:07;;;;;;;;;32.00;27.75;;;;;20.89;55.47;101427.69;5044549;28;45458;-67
2021/07/10 01:50:32;;;;;;;;;30.75;24.75;;;;;20.87;56.00;101414.56;5041546;28;45304;-68
2021/07/10 01:52:57;;;;;;;;;28.50;25.25;;;;;20.87;56.25;101406.66;5041317;28;56730;-68
2021/07/10 01:55:23;;;;;;;;;27.00;25.75;;;;;20.83;56.45;101407.78;5061212;28;52537;-68
2021/07/10 01:57:50;;;;;;;;;25.75;22.00;;;;;20.85;55.90;101413.81;5042342;28;45736;-68
2021/07/10 02:00:19;;;;;;;;;27.25;24.25;;;;;20.86;55.88;101404.94;5062364;28;45235;-68
2021/07/10 02:02:45;;;;;;;;;28.00;22.25;;;;;20.86;56.03;101404.94;5061704;28;45374;-68
2021/07/10 02:05:11;;;;;;;;;23.00;22.50;;;;;20.85;55.52;101405.03;5024218;28;60421;-68
2021/07/10 02:07:39;;;;;;;;;32.25;25.25;;;;;20.85;55.78;101400.59;5044149;28;45466;-68
2021/07/10 02:10:09;;;;;;;;;25.25;19.75;;;;;20.88;55.64;101408.34;5007744;28;45722;-68
2021/07/10 02:12:34;;;;;;;;;24.00;22.25;;;;;20.89;55.64;101401.28;5041075;28;45342;-68
2021/07/10 02:15:00;;;;;;;;;21.00;19.25;;;;;20.89;55.64;101401.28;5061030;28;45411;-67
2021/07/10 02:17:25;;;;;;;;;21.00;19.50;;;;;20.89;55.99;101398.63;5042744;28;70795;-68
2021/07/10 02:19:51;;;;;;;;;20.75;20.00;;;;;20.90;55.41;101393.25;5061625;28;65478;-68
2021/07/10 02:22:19;;;;;;;;;25.00;19.50;;;;;20.91;55.61;101389.66;5043483;28;59958;-68
2021/07/10 02:24:44;;;;;;;;;25.50;17.00;;;;;20.92;55.62;101386.06;5040966;28;45336;-69
2021/07/10 02:27:09;;;;;;;;;22.75;18.75;;;;;20.95;55.72;101390.31;5026281;28;59606;-69
2021/07/10 02:29:35;;;;;;;;;21.50;21.50;;;;;20.96;55.38;101392.88;5040391;28;57578;-69
2021/07/10 02:32:00;;;;;;;;;20.00;16.50;;;;;20.96;55.48;101387.59;5040543;28;66396;-69
2021/07/10 02:34:26;;;;;;;;;23.00;18.50;;;;;20.98;54.98;101389.28;5061899;28;45269;-67
2021/07/10 02:36:51;;;;;;;;;20.25;17.75;;;;;20.99;54.84;101389.19;5061653;28;45995;-66
2021/07/10 02:39:17;;;;;;;;;20.25;16.50;;;;;20.98;54.97;101379.56;5055771;28;45399;-68
2021/07/10 02:41:42;;;;;;;;;20.00;17.50;;;;;20.98;55.09;101371.63;5024356;28;62748;-69
2021/07/10 02:44:08;;;;;;;;;17.50;16.75;;;;;21.00;55.19;101364.47;5023106;28;64791;-70
2021/07/10 02:46:33;;;;;;;;;21.50;17.50;;;;;21.01;55.10;101370.59;5024292;28;65444;-70
2021/07/10 02:48:58;;;;;;;;;19.50;19.25;;;;;21.01;54.83;101366.16;5043635;28;45387;-70
2021/07/10 02:51:27;;;;;;;;;17.75;16.00;;;;;21.01;54.94;101362.66;5061933;28;45262;-71
2021/07/10 02:53:56;;;;;;;;;17.00;14.75;;;;;21.02;54.62;101361.72;5040395;28;45537;-68
2021/07/10 02:56:22;;;;;;;;;14.50;14.50;;;;;21.00;54.80;101355.69;5059887;28;46417;-68
2021/07/10 02:58:47;;;;;;;;;16.25;14.00;;;;;21.01;54.93;101360.88;5044791;28;45771;-70
2021/07/10 03:01:13;;;;;;;;;15.25;15.00;;;;;21.00;54.56;101356.53;5058654;28;45489;-66
2021/07/10 03:03:38;;;;;;;;;16.25;15.00;;;;;21.00;54.56;101355.69;5059440;28;60763;-66
2021/07/10 03:06:04;;;;;;;;;21.25;14.50;;;;;20.98;54.25;101344.34;5022885;28;65793;-69
2021/07/10 03:08:29;;;;;;;;;20.00;16.25;;;;;20.96;54.69;101345.31;5026169;28;63599;-69
2021/07/10 03:10:55;;;;;;;;;11.50;11.25;;;;;20.95;54.18;101342.75;5038395;28;45360;-66
2021/07/10 03:13:20;;;;;;;;;11.00;11.00;;;;;20.89;53.93;101337.84;5006488;28;57908;-70
2021/07/10 03:15:46;;;;;;;;;11.00;11.00;;;;;20.86;54.17;101333.63;5044595;28;67198;-68
2021/07/10 03:18:11;;;;;;;;;11.50;10.50;;;;;20.83;53.87;101333.81;5056100;28;45335;-69
2021/07/10 03:20:39;;;;;;;;;12.00;10.50;;;;;20.80;53.90;101333.97;5060837;28;54269;-72
2021/07/10 03:23:04;;;;;;;;;11.25;9.50;;;;;20.79;53.97;101334.91;5040166;28;45279;-69
2021/07/10 03:25:29;;;;;;;;;13.00;12.50;;;;;20.78;53.67;101333.22;5024424;28;45543;-71
2021/07/10 03:27:56;;;;;;;;;9.50;9.50;;;;;20.74;53.75;101337.00;5059900;28;45812;-70
2021/07/10 03:30:21;;;;;;;;;15.75;9.25;;;;;20.71;53.81;101326.63;5060296;28;45391;-71
2021/07/10 03:32:47;;;;;;;;;11.50;10.50;;;;;20.70;53.99;101330.19;5059636;28;52888;-68
2021/07/10 03:35:13;;;;;;;;;11.75;11.50;;;;;20.70;53.93;101332.00;5026163;28;46939;-68
2021/07/10 03:37:38;;;;;;;;;13.50;11.50;;;;;20.69;54.13;101333.78;5061306;28;45355;-71
2021/07/10 03:40:05;;;;;;;;;12.25;11.25;;;;;20.69;53.63;101331.16;5036097;28;45522;-67
2021/07/10 03:42:30;;;;;;;;;11.75;11.75;;;;;20.66;54.05;101320.75;5058576;28;45436;-65
2021/07/10 03:44:56;;;;;;;;;15.50;12.00;;;;;20.66;53.74;101328.69;5037890;28;72146;-67
2021/07/10 03:47:21;;;;;;;;;10.75;10.75;;;;;20.67;54.16;101332.19;5012278;28;66614;-67
2021/07/10 03:49:47;;;;;;;;;9.00;9.00;;;;;20.69;53.94;101336.44;5055795;28;58225;-64
2021/07/10 03:52:12;;;;;;;;;18.25;11.00;;;;;20.73;53.81;101324.72;5059620;28;45234;-67
2021/07/10 03:54:37;;;;;;;;;12.50;8.25;;;;;20.74;53.83;101326.41;5038626;28;63189;-67
2021/07/10 03:57:03;;;;;;;;;12.00;10.00;;;;;20.71;53.65;101318.69;5050042;28;59533;-68
2021/07/10 03:59:28;;;;;;;;;12.75;10.25;;;;;20.69;53.93;101327.66;5058053;28;45206;-70
2021/07/10 04:01:54;;;;;;;;;11.00;11.00;;;;;20.73;54.33;101335.28;5058675;28;58640;-65
2021/07/10 04:04:19;;;;;;;;;13.75;12.00;;;;;20.73;54.19;101337.94;5056515;28;63373;-65
2021/07/10 04:06:44;;;;;;;;;11.75;11.25;;;;;20.72;53.95;101323.03;5055422;28;66157;-65
2021/07/10 04:09:10;;;;;;;;;11.00;10.25;;;;;20.72;54.17;101325.66;5052403;28;66731;-67
2021/07/10 04:11:35;;;;;;;;;12.50;9.50;;;;;20.73;53.82;101326.53;5006107;28;45391;-68
2021/07/10 04:14:01;;;;;;;;;10.50;10.50;;;;;20.74;54.32;101320.28;5055731;28;66383;-69
2021/07/10 04:16:26;;;;;;;;;12.50;12.50;;;;;20.74;53.95;101318.50;5038604;28;45343;-66
2021/07/10 04:18:51;;;;;;;;;14.75;12.25;;;;;20.71;54.04;101316.03;5054389;28;61655;-68
2021/07/10 04:21:17;;;;;;;;;17.25;13.00;;;;;20.69;54.21;101317.94;5058776;28;58672;-69
2021/07/10 04:23:42;;;;;;;;;13.75;10.50;;;;;20.66;54.28;101318.13;5041937;28;54809;-69
2021/07/10 04:26:07;;;;;;;;;12.75;12.50;;;;;20.68;54.59;101316.25;5022333;28;45450;-69
2021/07/10 04:28:33;;;;;;;;;10.50;9.75;;;;;20.72;54.35;101316.91;5019234;28;59928;-69
2021/07/10 04:30:58;;;;;;;;;14.50;13.50;;;;;20.77;54.29;101323.59;5022016;28;45575;-68
2021/07/10 04:33:24;;;;;;;;;14.50;12.25;;;;;20.76;54.77;101319.25;5055999;28;46370;-67
2021/07/10 04:35:49;;;;;;;;;12.25;11.25;;;;;20.83;54.39;101311.81;5059649;28;57188;-67
2021/07/10 04:38:15;;;;;;;;;13.00;10.25;;;;;20.87;54.10;101319.47;5060281;28;45346;-70
2021/07/10 04:40:41;;;;;;;;;8.00;8.00;;;;;20.80;54.94;101318.13;5052913;28;45368;-71
2021/07/10 04:43:09;;;;;;;;;9.25;8.25;;;;;20.72;54.46;101317.75;5059830;28;45565;-68
2021/07/10 04:45:34;;;;;;;;;19.50;17.25;;;;;20.72;57.18;101324.81;5058585;28;45496;-68
2021/07/10 04:48:00;;;;;;;;;16.50;14.50;;;;;20.72;56.41;101332.75;5058697;28;45362;-67
2021/07/10 04:50:25;;;;;;;;;19.75;14.00;;;;;20.72;56.78;101340.66;5059379;28;62604;-70
2021/07/10 04:52:50;;;;;;;;;15.25;13.25;;;;;20.62;57.98;101335.94;5059201;28;57915;-68
2021/07/10 04:55:16;;;;;;;;;15.75;14.00;;;;;20.58;57.13;101330.91;5059617;28;56328;-66
2021/07/10 04:57:42;;;;;;;;;16.00;12.25;;;;;20.62;57.39;101337.72;5057364;28;45198;-64
2021/07/10 05:00:08;;;;;;;;;11.25;11.25;;;;;20.65;57.02;101337.56;5051572;28;45262;-64
2021/07/10 05:02:33;;;;;;;;;13.00;11.25;;;;;20.67;57.74;101330.38;5054712;28;46224;-64
2021/07/10 05:04:59;;;;;;;;;11.75;11.00;;;;;20.66;56.82;101336.63;5021148;28;47617;-69
2021/07/10 05:07:24;;;;;;;;;10.25;10.25;;;;;20.66;57.18;101336.63;5054581;28;55870;-70
2021/07/10 05:09:50;;;;;;;;;14.25;12.50;;;;;20.67;57.54;101338.31;5021807;28;45616;-68
2021/07/10 05:12:18;;;;;;;;;18.75;14.75;;;;;20.67;57.69;101340.94;5054656;28;45903;-67
2021/07/10 05:14:43;;;;;;;;;15.00;11.50;;;;;20.69;57.23;101338.22;5041299;28;45776;-69
2021/07/10 05:17:08;;;;;;;;;13.50;10.25;;;;;20.71;57.35;101345.09;5038850;28;45337;-68
2021/07/10 05:19:34;;;;;;;;;14.50;14.00;;;;;20.70;57.47;101339.91;5058425;28;45237;-68
2021/07/10 05:21:59;;;;;;;;;15.00;15.00;;;;;20.75;57.37;101348.41;5058705;28;63869;-67
2021/07/10 05:24:25;;;;;;;;;14.25;11.50;;;;;20.76;57.03;101343.03;5058872;28;65389;-62
2021/07/10 05:26:50;;;;;;;;;15.25;12.00;;;;;20.78;57.24;101342.94;5022916;28;65076;-72
2021/07/10 05:29:16;;;;;;;;;10.25;9.50;;;;;20.80;56.71;101339.25;5058229;28;45423;-69
2021/07/10 05:31:41;;;;;;;;;12.25;10.25;;;;;20.83;56.90;101338.25;5040903;28;46489;-69
2021/07/10 05:34:07;;;;;;;;;10.50;10.25;;;;;20.87;56.70;101330.03;5038048;28;45363;-67
2021/07/10 05:36:32;;;;;;;;;14.00;11.00;;;;;20.90;56.46;101335.13;5017493;28;45288;-69
2021/07/10 05:38:58;;;;;;;;;10.50;9.25;;;;;20.95;56.70;101334.84;5055189;28;59251;-68
2021/07/10 05:41:23;;;;;;;;;9.50;9.00;;;;;20.92;56.16;101327.09;5036050;28;65780;-69
2021/07/10 05:43:48;;;;;;;;;15.00;14.50;;;;;20.95;56.52;101319.81;5022537;28;45489;-68
2021/07/10 05:46:14;;;;;;;;;12.75;10.50;;;;;20.99;56.50;101322.28;5016592;28;45313;-68
2021/07/10 05:48:39;;;;;;;;;10.25;10.00;;;;;21.02;56.87;101322.06;5024486;28;45498;-68
2021/07/10 05:51:05;;;;;;;;;13.25;10.00;;;;;21.01;56.28;101315.09;5057820;28;45445;-69
2021/07/10 05:53:31;;;;;;;;;14.25;12.75;;;;;21.02;56.37;101319.44;5037874;28;45440;-69
2021/07/10 05:55:56;;;;;;;;;9.75;8.75;;;;;21.05;56.73;101316.63;5035966;28;45530;-69
2021/07/10 05:58:22;;;;;;;;;9.00;9.00;;;;;21.06;56.46;101313.88;5051364;28;56354;-65
2021/07/10 06:00:47;;;;;;;;;10.00;9.50;;;;;21.03;56.12;101315.88;5034606;28;46385;-67
2021/07/10 06:03:13;;;;;;;;;10.75;10.75;;;;;20.99;56.45;101307.28;5028238;28;65149;-66
2021/07/10 06:05:38;;;;;;;;;9.00;9.00;;;;;21.02;56.36;101312.34;5023268;28;45269;-68
2021/07/10 06:08:04;;;;;;;;;12.25;10.00;;;;;21.08;56.59;101317.28;5028988;28;45199;-70
2021/07/10 06:10:29;;;;;;;;;16.00;13.00;;;;;21.09;56.24;101312.84;5052541;28;46319;-69
2021/07/10 06:12:55;;;;;;;;;10.25;10.25;;;;;21.16;56.58;101312.34;5036900;28;45296;-71
2021/07/10 06:15:20;;;;;;;;;12.00;12.00;;;;;21.27;56.08;101311.72;5051949;28;45244;-65
2021/07/10 06:17:45;;;;;;;;;13.50;11.00;;;;;21.36;56.51;101303.19;5054766;28;62440;-67
2021/07/10 06:20:12;;;;;;;;;13.50;11.75;;;;;21.51;55.91;101304.03;5054513;28;47111;-67
2021/07/10 06:22:38;;;;;;;;;16.50;13.25;;;;;21.67;55.72;101309.19;5060879;28;45277;-67
2021/07/10 06:25:04;;;;;;;;;13.00;11.25;;;;;21.73;54.99;101306.13;5040881;28;45514;-67
2021/07/10 06:27:30;;;;;;;;;11.75;11.25;;;;;21.65;55.22;101297.84;5043753;28;45305;-67
2021/07/10 06:29:55;;;;;;;;;10.50;10.00;;;;;21.65;55.24;101308.44;5060836;28;65486;-65
2021/07/10 06:32:20;;;;;;;;;9.75;9.75;;;;;21.66;55.31;101310.13;5039797;28;61094;-66
2021/07/10 06:34:46;;;;;;;;;5.75;5.25;;;;;21.68;54.99;101308.22;5017262;28;64426;-66
2021/07/10 06:37:11;;;;;;;;;8.75;8.75;;;;;21.70;55.20;101303.69;5039663;28;58326;-65
2021/07/10 06:39:36;;;;;;;;;9.75;9.50;;;;;21.64;55.18;101302.31;5046439;28;64422;-73
2021/07/10 06:42:03;;;;;;;;;12.50;9.75;;;;;21.54;55.20;101302.03;5007149;28;45360;-70
2021/07/10 06:44:28;;;;;;;;;13.50;9.75;;;;;21.50;55.59;101299.69;5034514;28;45309;-70
2021/07/10 06:46:54;;;;;;;;;9.25;9.00;;;;;21.47;55.25;101300.75;5042202;28;58457;-69
2021/07/10 06:49:20;;;;;;;;;12.00;12.00;;;;;21.39;55.44;101295.06;5047758;28;47072;-70
2021/07/10 06:51:45;;;;;;;;;12.75;11.25;;;;;21.33;55.38;101290.19;5040208;28;45473;-72
2021/07/10 06:54:11;;;;;;;;;12.25;10.00;;;;;21.40;55.18;101298.56;5054549;28;45240;-72
2021/07/10 06:56:36;;;;;;;;;13.50;10.00;;;;;21.53;54.99;101299.47;5043377;28;45406;-68
2021/07/10 06:59:02;;;;;;;;;11.25;8.50;;;;;21.63;54.75;101289.19;5022646;28;69641;-68
2021/07/10 07:01:27;;;;;;;;;11.75;11.75;;;;;21.68;54.57;101290.56;5058256;28;45240;-70
2021/07/10 07:03:53;;;;;;;;;10.25;9.00;;;;;21.76;54.48;101292.69;5040272;28;45317;-69
2021/07/10 07:06:19;;;;;;;;;10.25;9.50;;;;;21.87;54.21;101284.91;5039759;28;45491;-73
2021/07/10 07:08:44;;;;;;;;;10.50;9.75;;;;;21.97;53.88;101288.63;5055464;28;46043;-69
2021/07/10 07:11:11;;;;;;;;;13.00;10.00;;;;;21.90;53.67;101282.06;5058526;28;62420;-69
2021/07/10 07:13:36;;;;;;;;;11.50;10.00;;;;;21.84;53.99;101285.97;5023754;28;45471;-72
2021/07/10 07:16:02;;;;;;;;;10.50;9.50;;;;;21.91;54.03;101291.69;5020608;28;49880;-70
2021/07/10 07:18:27;;;;;;;;;13.00;10.00;;;;;21.96;53.99;101284.28;5051545;28;46486;-71
2021/07/10 07:20:52;;;;;;;;;11.75;11.00;;;;;22.05;53.61;101285.53;5039256;28;58670;-65
2021/07/10 07:23:18;;;;;;;;;13.00;11.00;;;;;22.08;53.44;101285.31;5030787;28;60069;-68
2021/07/10 07:25:43;;;;;;;;;10.25;10.25;;;;;22.09;53.73;101285.22;5058444;28;55120;-68
2021/07/10 07:28:09;;;;;;;;;7.50;7.50;;;;;22.07;53.82;101281.81;5060681;28;46451;-69
2021/07/10 07:30:34;;;;;;;;;10.50;8.00;;;;;22.05;54.44;101282.88;5038920;28;45274;-66
2021/07/10 07:32:59;;;;;;;;;10.50;7.25;;;;;21.99;53.93;101278.78;5035623;28;45258;-69
2021/07/10 07:35:25;;;;;;;;;11.75;9.25;;;;;21.96;54.48;101279.00;5059537;28;45281;-70
2021/07/10 07:37:50;;;;;;;;;8.25;8.00;;;;;21.86;54.44;101273.47;5060016;28;69098;-68
2021/07/10 07:40:16;;;;;;;;;8.00;7.75;;;;;21.79;54.33;101269.53;5051609;28;46187;-68
2021/07/10 07:42:42;;;;;;;;;10.25;8.75;;;;;21.78;55.36;101274.91;5055949;28;45225;-68
2021/07/10 07:45:08;;;;;;;;;8.75;8.00;;;;;21.80;55.79;101275.66;5038715;28;45480;-69
2021/07/10 07:47:34;;;;;;;;;9.50;7.75;;;;;21.79;54.72;101272.16;5052949;28;46640;-71
2021/07/10 07:50:00;;;;;;;;;11.25;10.00;;;;;21.80;55.22;101271.22;5059382;28;45346;-69
2021/07/10 07:52:25;;;;;;;;;14.25;11.00;;;;;21.81;54.83;101275.56;5006281;28;45409;-70
2021/07/10 07:54:50;;;;;;;;;9.75;9.75;;;;;21.87;55.13;101263.75;5020578;28;45536;-67
2021/07/10 07:57:16;;;;;;;;;7.00;7.00;;;;;21.92;54.98;101266.94;5029986;28;65562;-67
2021/07/10 07:59:41;;;;;;;;;8.00;7.00;;;;;21.96;54.18;101257.81;5038616;28;45347;-69
2021/07/10 08:02:08;;;;;;;;;10.25;8.00;;;;;21.94;53.53;101259.72;5031890;28;58856;-70
2021/07/10 08:04:35;;;;;;;;;7.75;7.75;;;;;21.93;53.83;101268.63;5055419;28;46815;-68
2021/07/10 08:07:00;;;;;;;;;8.00;8.00;;;;;21.98;53.59;101260.38;5059287;28;46234;-71
2021/07/10 08:09:25;;;;;;;;;9.00;8.25;;;;;21.99;53.63;101262.91;5058942;28;45376;-72
2021/07/10 08:11:51;;;;;;;;;9.00;8.50;;;;;22.06;53.14;101264.25;5040972;28;45312;-72
2021/07/10 08:14:16;;;;;;;;;11.25;8.75;;;;;22.19;53.24;101258.09;5042715;28;61810;-68
2021/07/10 08:16:42;;;;;;;;;7.00;7.00;;;;;22.36;53.09;101253.38;5023806;28;45490;-66
2021/07/10 08:19:07;;;;;;;;;7.00;7.00;;;;;22.58;52.31;101252.72;5020599;28;47841;-71
2021/07/10 08:21:33;;;;;;;;;8.25;7.00;;;;;22.66;52.06;101255.72;5017793;28;46410;-54
2021/07/10 08:23:59;;;;;;;;;7.50;6.50;;;;;22.68;51.73;101258.25;5048464;28;45404;-51
2021/07/10 08:26:25;;;;;;;;;8.50;8.50;;;;;22.59;51.74;101251.75;5049646;28;46067;-51
2021/07/10 08:28:50;;;;;;;;;9.25;6.75;;;;;22.63;51.41;101263.88;5055469;28;45451;-67
2021/07/10 08:31:16;;;;;;;;;8.00;7.00;;;;;22.64;49.90;101244.38;5021761;28;45415;-67
2021/07/10 08:33:41;;;;;;;;;7.75;6.50;;;;;22.55;50.59;101260.88;5033918;28;67179;-67
2021/07/10 08:36:09;;;;;;;;;7.00;7.00;;;;;22.55;50.90;101245.00;5051082;28;45369;-67
2021/07/10 08:38:37;;;;;;;;;7.25;6.25;;;;;22.61;50.43;101249.84;5057198;28;45387;-67
2021/07/10 08:41:04;;;;;;;;;8.00;7.00;;;;;22.66;50.62;101244.25;5025567;28;45591;-69
2021/07/10 08:43:29;;;;;;;;;9.25;7.00;;;;;22.71;49.28;101239.47;5028536;28;45908;-65
2021/07/10 08:45:55;;;;;;;;;10.00;7.75;;;;;22.71;49.62;101250.91;5046677;28;68453;-68
2021/07/10 08:48:20;;;;;;;;;9.75;9.00;;;;;22.71;50.15;101242.97;5015543;28;45497;-70
2021/07/10 08:50:46;;;;;;;;;7.25;7.00;;;;;22.81;50.19;101250.25;5038457;28;57477;-67
2021/07/10 08:53:11;;;;;;;;;7.75;6.50;;;;;22.76;49.45;101243.50;5048767;28;54455;-67
2021/07/10 08:55:37;;;;;;;;;6.00;5.50;;;;;22.84;49.61;101247.47;5030845;28;46293;-67
2021/07/10 08:58:03;;;;;;;;;11.50;6.25;;;;;22.93;48.84;101249.44;5045561;28;46279;-67
2021/07/10 09:00:31;;;;;;;;;8.00;7.00;;;;;23.01;47.81;101258.53;5052906;28;45245;-67
2021/07/10 09:02:57;;;;;;;;;7.00;7.00;;;;;22.89;48.06;101262.06;5057760;28;45328;-67
2021/07/10 09:05:23;;;;;;;;;8.00;7.00;;;;;22.77;48.31;101255.78;5004945;28;47309;-67
2021/07/10 09:08:27;;;;;;;;;10.00;5.50;;;;;22.72;48.31;101263.22;5038192;28;45381;-67
2021/07/10 09:10:58;;;;;;;;;6.50;6.00;;;;;22.57;49.01;101263.44;5053989;28;45581;-67
2021/07/10 09:13:40;;;;;;;;;7.00;7.00;;;;;22.48;48.97;101254.34;5050309;28;45378;-67
2021/07/10 09:16:13;;;;;;;;;5.25;5.25;;;;;22.53;49.55;101267.25;5036384;28;47868;-67
2021/07/10 09:18:44;;;;;;;;;8.75;7.75;;;;;22.55;49.60;101271.47;5029710;28;45740;-67
2021/07/10 09:21:11;;;;;;;;;8.75;8.00;;;;;22.57;49.52;101276.69;5019438;28;45405;-66
2021/07/10 09:23:39;;;;;;;;;6.00;6.00;;;;;22.59;49.93;101278.25;5047406;28;45177;-66
2021/07/10 09:26:25;;;;;;;;;7.50;6.00;;;;;22.47;50.23;101273.81;5030299;28;47460;-66
2021/07/10 09:29:00;;;;;;;;;7.25;7.25;;;;;22.35;49.80;101286.09;5038022;28;45788;-67
2021/07/10 09:31:31;;;;;;;;;7.00;5.25;;;;;22.15;49.21;101279.50;5049413;28;45694;-67
2021/07/10 09:34:08;;;;;;;;;3.75;3.50;;;;;21.89;48.57;101271.59;5017152;28;45253;-67
2021/07/10 09:36:34;;;;;;;;;5.50;4.50;;;;;21.70;48.57;101266.66;5028728;28;45696;-67
2021/07/10 09:38:59;;;;;;;;;3.75;3.75;;;;;21.59;49.66;101255.91;5037531;28;45439;-67
2021/07/10 09:41:28;;;;;;;;;4.00;4.00;;;;;21.63;50.20;101252.16;5035025;28;45293;-67
2021/07/10 09:43:56;;;;;;;;;5.50;3.00;;;;;21.72;50.75;101254.16;5029299;28;45266;-67
2021/07/10 09:46:25;;;;;;;;;7.00;5.25;;;;;21.79;50.72;101258.94;5019992;28;47013;-62
2021/07/10 09:48:51;;;;;;;;;4.00;4.00;;;;;21.85;50.68;101253.25;5050865;28;45498;-62
2021/07/10 09:51:20;;;;;;;;;9.00;5.00;;;;;21.95;51.07;101250.84;5049221;28;67807;-62
2021/07/10 09:54:03;;;;;;;;;5.50;5.50;;;;;22.09;51.40;101244.66;5052564;28;45396;-62
2021/07/10 09:56:30;;;;;;;;;6.00;6.00;;;;;22.26;51.03;101235.56;5049999;28;45623;-62
2021/07/10 09:58:55;;;;;;;;;5.25;5.25;;;;;22.42;51.72;101233.53;5050618;28;45492;-61
2021/07/10 10:01:36;;;;;;;;;5.25;5.25;;;;;22.54;52.10;101227.41;5051683;28;45407;-63
2021/07/10 10:04:18;;;;;;;;;5.00;4.25;;;;;22.63;50.90;101237.38;5051482;28;45579;-62
2021/07/10 10:06:44;;;;;;;;;6.00;6.00;;;;;22.63;51.22;101240.03;5039556;28;47186;-62
2021/07/10 10:09:20;;;;;;;;;5.50;5.50;;;;;22.60;51.53;101242.03;5051264;28;48062;-62
2021/07/10 10:11:57;;;;;;;;;4.00;4.00;;;;;22.68;50.76;101245.84;5049436;28;45376;-63
2021/07/10 10:14:23;;;;;;;;;8.75;4.00;;;;;22.62;50.38;101240.09;5054229;28;45759;-62
2021/07/10 10:16:49;;;;;;;;;6.00;4.00;;;;;22.60;50.49;101231.41;5037617;28;46772;-63
2021/07/10 10:19:16;;;;;;;;;4.50;4.00;;;;;22.62;50.50;101222.41;5053829;28;45248;-62
2021/07/10 10:21:42;;;;;;;;;4.25;4.25;;;;;22.59;50.28;101217.31;5059378;28;45380;-64
2021/07/10 10:24:08;;;;;;;;;6.00;4.75;;;;;22.65;50.34;101218.72;5041122;28;45562;-65
2021/07/10 10:26:34;;;;;;;;;5.00;3.50;;;;;22.69;50.74;101226.34;5035636;28;45309;-63
2021/07/10 10:28:59;;;;;;;;;4.75;4.75;;;;;22.71;50.60;101227.06;5032456;28;45383;-63
2021/07/10 10:31:25;;;;;;;;;5.00;5.00;;;;;22.73;50.06;101227.81;5036192;28;45566;-62
2021/07/10 10:33:51;;;;;;;;;5.75;5.00;;;;;22.74;49.68;101240.09;5029998;28;68583;-61
2021/07/10 10:36:16;;;;;;;;;7.00;6.00;;;;;22.74;50.12;101237.44;5038460;28;46170;-66
2021/07/10 10:38:41;;;;;;;;;4.75;4.75;;;;;22.80;49.94;101230.03;5041474;28;63430;-64
2021/07/10 10:41:07;;;;;;;;;5.75;5.50;;;;;22.94;50.48;101227.28;5048117;28;59993;-63
2021/07/10 10:43:33;;;;;;;;;6.25;5.50;;;;;23.08;50.87;101232.44;5050383;28;45439;-62
2021/07/10 10:46:11;;;;;;;;;7.00;5.00;;;;;23.15;49.09;101228.38;5029894;28;67167;-62
2021/07/10 10:48:37;;;;;;;;;3.00;3.00;;;;;23.15;49.90;101233.69;5007774;28;46511;-62
2021/07/10 10:51:28;;;;;;;;;6.00;5.00;;;;;23.20;49.70;101228.03;5037449;28;45523;-62
2021/07/10 10:54:14;;;;;;;;;5.00;5.00;;;;;23.29;49.56;101225.59;5038269;28;46107;-62
2021/07/10 10:56:39;;;;;;;;;4.25;4.25;;;;;23.34;49.82;101220.78;5041962;28;46295;-61
2021/07/10 10:59:37;;;;;;;;;6.50;4.75;;;;;23.31;48.87;101217.50;5038759;28;45437;-62
2021/07/10 11:02:03;;;;;;;;;3.25;3.25;;;;;23.22;47.12;101226.13;5048721;28;45559;-66
2021/07/10 11:04:48;;;;;;;;;6.00;4.00;;;;;23.07;47.72;101222.78;5020122;28;46265;-63
2021/07/10 11:07:29;;;;;;;;;10.50;8.50;;;;;22.97;48.25;101219.09;5050952;28;45466;-61
2021/07/10 11:10:14;;;;;;;;;2.00;2.00;;;;;22.97;47.80;101219.09;5050797;28;45658;-65
2021/07/10 11:12:49;;;;;;;;;5.25;4.00;;;;;22.87;47.16;101212.78;5051428;28;45300;-63